sensor_id;sensor_type;location;lat;lon;timestamp;P1;durP1;ratioP1;P2;durP2;ratioP2
27899;SDS011;15243;50.726;7.080;2023-04-09T00:01:56;65.13;;;39.05;;
27899;SDS011;15243;50.726;7.080;2023-04-09T00:04:23;62.78;;;38.72;;
27899;SDS011;15243;50.726;7.080;2023-04-09T00:06:51;63.55;;;37.60;;
27899;SDS011;15243;50.726;7.080;2023-04-09T00:09:18;59.30;;;37.17;;
27899;SDS011;15243;50.726;7.080;2023-04-09T00:11:46;60.53;;;38.58;;
27899;SDS011;15243;50.726;7.080;2023-04-09T00:14:13;61.55;;;38.97;;
27899;SDS011;15243;50.726;7.080;2023-04-09T00:16:41;61.95;;;39.28;;
27899;SDS011;15243;50.726;7.080;2023-04-09T00:19:08;60.92;;;39.35;;
27899;SDS011;15243;50.726;7.080;2023-04-09T00:21:35;67.35;;;41.53;;
27899;SDS011;15243;50.726;7.080;2023-04-09T00:24:02;62.90;;;38.30;;
27899;SDS011;15243;50.726;7.080;2023-04-09T00:26:30;70.63;;;40.30;;
27899;SDS011;15243;50.726;7.080;2023-04-09T00:28:57;75.68;;;44.03;;
27899;SDS011;15243;50.726;7.080;2023-04-09T00:31:24;69.22;;;41.95;;
27899;SDS011;15243;50.726;7.080;2023-04-09T00:33:52;71.18;;;40.65;;
27899;SDS011;15243;50.726;7.080;2023-04-09T00:36:19;67.00;;;41.13;;
27899;SDS011;15243;50.726;7.080;2023-04-09T00:38:46;69.20;;;41.13;;
27899;SDS011;15243;50.726;7.080;2023-04-09T00:41:14;62.03;;;40.88;;
27899;SDS011;15243;50.726;7.080;2023-04-09T00:43:41;64.18;;;40.42;;
27899;SDS011;15243;50.726;7.080;2023-04-09T00:46:07;67.72;;;41.55;;
27899;SDS011;15243;50.726;7.080;2023-04-09T00:48:34;64.88;;;39.72;;
27899;SDS011;15243;50.726;7.080;2023-04-09T00:51:02;60.72;;;38.15;;
27899;SDS011;15243;50.726;7.080;2023-04-09T00:53:29;67.32;;;41.40;;
27899;SDS011;15243;50.726;7.080;2023-04-09T00:55:56;65.38;;;39.80;;
27899;SDS011;15243;50.726;7.080;2023-04-09T00:58:23;66.97;;;41.78;;
27899;SDS011;15243;50.726;7.080;2023-04-09T01:00:50;69.93;;;40.30;;
27899;SDS011;15243;50.726;7.080;2023-04-09T01:03:17;64.10;;;39.42;;
27899;SDS011;15243;50.726;7.080;2023-04-09T01:08:20;64.75;;;38.85;;
27899;SDS011;15243;50.726;7.080;2023-04-09T01:13:55;67.93;;;40.83;;
27899;SDS011;15243;50.726;7.080;2023-04-09T01:16:35;65.60;;;40.60;;
27899;SDS011;15243;50.726;7.080;2023-04-09T01:19:09;62.47;;;39.90;;
27899;SDS011;15243;50.726;7.080;2023-04-09T01:21:56;63.85;;;38.90;;
27899;SDS011;15243;50.726;7.080;2023-04-09T01:24:35;66.60;;;39.75;;
27899;SDS011;15243;50.726;7.080;2023-04-09T01:27:08;67.80;;;40.67;;
27899;SDS011;15243;50.726;7.080;2023-04-09T01:29:40;70.75;;;41.92;;
27899;SDS011;15243;50.726;7.080;2023-04-09T01:32:17;62.90;;;39.05;;
27899;SDS011;15243;50.726;7.080;2023-04-09T01:34:46;68.50;;;41.22;;
27899;SDS011;15243;50.726;7.080;2023-04-09T01:37:14;69.30;;;42.30;;
27899;SDS011;15243;50.726;7.080;2023-04-09T01:39:42;67.70;;;39.80;;
27899;SDS011;15243;50.726;7.080;2023-04-09T01:42:10;66.72;;;41.00;;
27899;SDS011;15243;50.726;7.080;2023-04-09T01:44:40;66.00;;;39.55;;
27899;SDS011;15243;50.726;7.080;2023-04-09T01:47:10;66.90;;;39.30;;
27899;SDS011;15243;50.726;7.080;2023-04-09T01:49:38;69.93;;;41.00;;
27899;SDS011;15243;50.726;7.080;2023-04-09T01:52:06;63.78;;;39.03;;
27899;SDS011;15243;50.726;7.080;2023-04-09T01:54:34;65.32;;;39.15;;
27899;SDS011;15243;50.726;7.080;2023-04-09T01:57:01;68.53;;;41.40;;
27899;SDS011;15243;50.726;7.080;2023-04-09T01:59:28;69.47;;;42.35;;
27899;SDS011;15243;50.726;7.080;2023-04-09T02:02:00;81.63;;;44.17;;
27899;SDS011;15243;50.726;7.080;2023-04-09T02:04:40;72.43;;;42.33;;
27899;SDS011;15243;50.726;7.080;2023-04-09T02:09:49;69.53;;;38.50;;
27899;SDS011;15243;50.726;7.080;2023-04-09T02:12:19;63.83;;;37.72;;
27899;SDS011;15243;50.726;7.080;2023-04-09T02:14:50;60.70;;;36.88;;
27899;SDS011;15243;50.726;7.080;2023-04-09T02:17:19;62.58;;;38.13;;
27899;SDS011;15243;50.726;7.080;2023-04-09T02:19:46;65.03;;;38.45;;
27899;SDS011;15243;50.726;7.080;2023-04-09T02:22:14;63.42;;;37.55;;
27899;SDS011;15243;50.726;7.080;2023-04-09T02:24:42;62.80;;;37.58;;
27899;SDS011;15243;50.726;7.080;2023-04-09T02:27:11;65.15;;;38.50;;
27899;SDS011;15243;50.726;7.080;2023-04-09T02:29:39;64.07;;;36.45;;
27899;SDS011;15243;50.726;7.080;2023-04-09T02:32:06;59.85;;;35.08;;
27899;SDS011;15243;50.726;7.080;2023-04-09T02:34:33;64.43;;;36.72;;
27899;SDS011;15243;50.726;7.080;2023-04-09T02:37:00;56.78;;;35.83;;
27899;SDS011;15243;50.726;7.080;2023-04-09T02:39:26;56.25;;;34.88;;
27899;SDS011;15243;50.726;7.080;2023-04-09T02:41:54;60.90;;;36.22;;
27899;SDS011;15243;50.726;7.080;2023-04-09T02:44:21;65.20;;;37.55;;
27899;SDS011;15243;50.726;7.080;2023-04-09T02:46:49;68.13;;;40.20;;
27899;SDS011;15243;50.726;7.080;2023-04-09T02:49:17;66.32;;;39.70;;
27899;SDS011;15243;50.726;7.080;2023-04-09T02:51:44;65.97;;;38.05;;
27899;SDS011;15243;50.726;7.080;2023-04-09T02:54:11;61.35;;;37.67;;
27899;SDS011;15243;50.726;7.080;2023-04-09T02:56:38;63.90;;;38.83;;
27899;SDS011;15243;50.726;7.080;2023-04-09T02:59:04;67.70;;;41.22;;
27899;SDS011;15243;50.726;7.080;2023-04-09T03:01:32;68.75;;;39.15;;
27899;SDS011;15243;50.726;7.080;2023-04-09T03:03:59;72.95;;;41.53;;
27899;SDS011;15243;50.726;7.080;2023-04-09T03:06:27;67.55;;;41.17;;
27899;SDS011;15243;50.726;7.080;2023-04-09T03:08:54;68.82;;;41.05;;
27899;SDS011;15243;50.726;7.080;2023-04-09T03:11:21;69.60;;;41.58;;
27899;SDS011;15243;50.726;7.080;2023-04-09T03:13:48;67.22;;;39.75;;
27899;SDS011;15243;50.726;7.080;2023-04-09T03:16:15;70.00;;;38.22;;
27899;SDS011;15243;50.726;7.080;2023-04-09T03:18:42;64.20;;;37.63;;
27899;SDS011;15243;50.726;7.080;2023-04-09T03:21:09;63.50;;;37.60;;
27899;SDS011;15243;50.726;7.080;2023-04-09T03:23:39;61.33;;;37.42;;
27899;SDS011;15243;50.726;7.080;2023-04-09T03:26:07;64.38;;;39.47;;
27899;SDS011;15243;50.726;7.080;2023-04-09T03:28:34;65.95;;;38.55;;
27899;SDS011;15243;50.726;7.080;2023-04-09T03:31:01;60.58;;;37.15;;
27899;SDS011;15243;50.726;7.080;2023-04-09T03:33:28;67.25;;;37.63;;
27899;SDS011;15243;50.726;7.080;2023-04-09T03:35:55;68.40;;;39.40;;
27899;SDS011;15243;50.726;7.080;2023-04-09T03:38:22;67.82;;;37.95;;
27899;SDS011;15243;50.726;7.080;2023-04-09T03:40:49;65.90;;;38.85;;
27899;SDS011;15243;50.726;7.080;2023-04-09T03:43:16;70.10;;;38.40;;
27899;SDS011;15243;50.726;7.080;2023-04-09T03:45:43;62.45;;;37.00;;
27899;SDS011;15243;50.726;7.080;2023-04-09T03:48:12;70.28;;;39.80;;
27899;SDS011;15243;50.726;7.080;2023-04-09T03:50:39;68.47;;;38.42;;
27899;SDS011;15243;50.726;7.080;2023-04-09T03:53:07;59.42;;;35.75;;
27899;SDS011;15243;50.726;7.080;2023-04-09T03:55:34;60.60;;;35.92;;
27899;SDS011;15243;50.726;7.080;2023-04-09T03:58:02;66.75;;;37.50;;
27899;SDS011;15243;50.726;7.080;2023-04-09T04:00:29;65.65;;;37.05;;
27899;SDS011;15243;50.726;7.080;2023-04-09T04:02:56;64.32;;;38.20;;
27899;SDS011;15243;50.726;7.080;2023-04-09T04:05:23;68.32;;;39.90;;
27899;SDS011;15243;50.726;7.080;2023-04-09T04:07:51;69.03;;;39.33;;
27899;SDS011;15243;50.726;7.080;2023-04-09T04:10:18;72.57;;;39.35;;
27899;SDS011;15243;50.726;7.080;2023-04-09T04:12:45;65.53;;;38.28;;
27899;SDS011;15243;50.726;7.080;2023-04-09T04:15:13;64.28;;;37.47;;
27899;SDS011;15243;50.726;7.080;2023-04-09T04:17:40;64.85;;;38.28;;
27899;SDS011;15243;50.726;7.080;2023-04-09T04:20:07;66.43;;;37.97;;
27899;SDS011;15243;50.726;7.080;2023-04-09T04:22:35;67.95;;;39.10;;
27899;SDS011;15243;50.726;7.080;2023-04-09T04:25:03;66.90;;;39.70;;
27899;SDS011;15243;50.726;7.080;2023-04-09T04:27:30;64.95;;;36.78;;
27899;SDS011;15243;50.726;7.080;2023-04-09T04:29:57;66.35;;;37.85;;
27899;SDS011;15243;50.726;7.080;2023-04-09T04:32:25;64.55;;;38.40;;
27899;SDS011;15243;50.726;7.080;2023-04-09T04:34:52;63.53;;;37.97;;
27899;SDS011;15243;50.726;7.080;2023-04-09T04:37:20;64.45;;;39.00;;
27899;SDS011;15243;50.726;7.080;2023-04-09T04:39:47;67.43;;;39.03;;
27899;SDS011;15243;50.726;7.080;2023-04-09T04:42:14;64.97;;;37.47;;
27899;SDS011;15243;50.726;7.080;2023-04-09T04:44:42;66.35;;;38.05;;
27899;SDS011;15243;50.726;7.080;2023-04-09T04:47:09;68.00;;;39.83;;
27899;SDS011;15243;50.726;7.080;2023-04-09T04:49:36;65.03;;;37.10;;
27899;SDS011;15243;50.726;7.080;2023-04-09T04:52:03;61.55;;;36.45;;
27899;SDS011;15243;50.726;7.080;2023-04-09T04:54:31;61.78;;;37.17;;
27899;SDS011;15243;50.726;7.080;2023-04-09T04:56:59;66.75;;;37.05;;
27899;SDS011;15243;50.726;7.080;2023-04-09T04:59:27;65.35;;;37.53;;
27899;SDS011;15243;50.726;7.080;2023-04-09T05:01:54;67.65;;;37.80;;
27899;SDS011;15243;50.726;7.080;2023-04-09T05:04:21;64.75;;;37.33;;
27899;SDS011;15243;50.726;7.080;2023-04-09T05:06:48;66.80;;;37.83;;
27899;SDS011;15243;50.726;7.080;2023-04-09T05:09:15;65.63;;;37.13;;
27899;SDS011;15243;50.726;7.080;2023-04-09T05:11:42;70.88;;;38.92;;
27899;SDS011;15243;50.726;7.080;2023-04-09T05:14:09;67.57;;;37.65;;
27899;SDS011;15243;50.726;7.080;2023-04-09T05:16:38;66.32;;;35.85;;
27899;SDS011;15243;50.726;7.080;2023-04-09T05:19:05;65.00;;;36.10;;
27899;SDS011;15243;50.726;7.080;2023-04-09T05:21:32;61.47;;;35.85;;
27899;SDS011;15243;50.726;7.080;2023-04-09T05:23:59;58.78;;;34.47;;
27899;SDS011;15243;50.726;7.080;2023-04-09T05:26:26;63.30;;;36.05;;
27899;SDS011;15243;50.726;7.080;2023-04-09T05:28:54;59.53;;;35.03;;
27899;SDS011;15243;50.726;7.080;2023-04-09T05:31:21;57.85;;;34.42;;
27899;SDS011;15243;50.726;7.080;2023-04-09T05:33:47;62.70;;;35.40;;
27899;SDS011;15243;50.726;7.080;2023-04-09T05:36:15;57.38;;;34.28;;
27899;SDS011;15243;50.726;7.080;2023-04-09T05:38:42;61.85;;;34.97;;
27899;SDS011;15243;50.726;7.080;2023-04-09T05:41:10;57.13;;;33.70;;
27899;SDS011;15243;50.726;7.080;2023-04-09T05:43:37;62.75;;;34.47;;
27899;SDS011;15243;50.726;7.080;2023-04-09T05:46:04;60.33;;;34.60;;
27899;SDS011;15243;50.726;7.080;2023-04-09T05:48:33;63.08;;;37.08;;
27899;SDS011;15243;50.726;7.080;2023-04-09T05:51:01;59.30;;;35.78;;
27899;SDS011;15243;50.726;7.080;2023-04-09T05:53:30;59.40;;;34.63;;
27899;SDS011;15243;50.726;7.080;2023-04-09T05:55:57;61.85;;;36.03;;
27899;SDS011;15243;50.726;7.080;2023-04-09T05:58:24;60.55;;;34.78;;
27899;SDS011;15243;50.726;7.080;2023-04-09T06:00:53;58.00;;;34.33;;
27899;SDS011;15243;50.726;7.080;2023-04-09T06:03:20;52.97;;;33.10;;
27899;SDS011;15243;50.726;7.080;2023-04-09T06:05:48;53.03;;;31.95;;
27899;SDS011;15243;50.726;7.080;2023-04-09T06:08:15;48.17;;;30.42;;
27899;SDS011;15243;50.726;7.080;2023-04-09T06:10:42;46.03;;;29.70;;
27899;SDS011;15243;50.726;7.080;2023-04-09T06:13:08;47.28;;;30.08;;
27899;SDS011;15243;50.726;7.080;2023-04-09T06:15:36;49.05;;;29.27;;
27899;SDS011;15243;50.726;7.080;2023-04-09T06:18:04;43.08;;;27.35;;
27899;SDS011;15243;50.726;7.080;2023-04-09T06:20:32;39.28;;;25.23;;
27899;SDS011;15243;50.726;7.080;2023-04-09T06:22:58;38.60;;;24.45;;
27899;SDS011;15243;50.726;7.080;2023-04-09T06:25:25;40.95;;;26.05;;
27899;SDS011;15243;50.726;7.080;2023-04-09T06:27:53;41.08;;;25.48;;
27899;SDS011;15243;50.726;7.080;2023-04-09T06:30:20;38.28;;;24.85;;
27899;SDS011;15243;50.726;7.080;2023-04-09T06:32:48;35.20;;;22.88;;
27899;SDS011;15243;50.726;7.080;2023-04-09T06:35:21;44.70;;;23.27;;
27899;SDS011;15243;50.726;7.080;2023-04-09T06:37:48;30.80;;;20.45;;
27899;SDS011;15243;50.726;7.080;2023-04-09T06:40:15;30.98;;;19.50;;
27899;SDS011;15243;50.726;7.080;2023-04-09T06:42:44;27.85;;;18.80;;
27899;SDS011;15243;50.726;7.080;2023-04-09T06:45:11;28.88;;;18.08;;
27899;SDS011;15243;50.726;7.080;2023-04-09T06:47:38;25.70;;;16.85;;
27899;SDS011;15243;50.726;7.080;2023-04-09T06:50:05;28.02;;;17.38;;
27899;SDS011;15243;50.726;7.080;2023-04-09T06:52:32;28.65;;;16.80;;
27899;SDS011;15243;50.726;7.080;2023-04-09T06:54:59;23.67;;;16.38;;
27899;SDS011;15243;50.726;7.080;2023-04-09T06:57:26;26.65;;;17.13;;
27899;SDS011;15243;50.726;7.080;2023-04-09T06:59:53;25.95;;;16.27;;
27899;SDS011;15243;50.726;7.080;2023-04-09T07:02:20;26.13;;;16.77;;
27899;SDS011;15243;50.726;7.080;2023-04-09T07:04:48;26.77;;;15.77;;
27899;SDS011;15243;50.726;7.080;2023-04-09T07:07:15;24.75;;;14.48;;
27899;SDS011;15243;50.726;7.080;2023-04-09T07:09:43;24.08;;;13.73;;
27899;SDS011;15243;50.726;7.080;2023-04-09T07:12:10;23.02;;;14.05;;
27899;SDS011;15243;50.726;7.080;2023-04-09T07:14:37;24.40;;;13.50;;
27899;SDS011;15243;50.726;7.080;2023-04-09T07:17:04;18.15;;;12.48;;
27899;SDS011;15243;50.726;7.080;2023-04-09T07:19:31;20.40;;;13.05;;
27899;SDS011;15243;50.726;7.080;2023-04-09T07:21:58;20.92;;;12.75;;
27899;SDS011;15243;50.726;7.080;2023-04-09T07:24:25;16.65;;;11.55;;
27899;SDS011;15243;50.726;7.080;2023-04-09T07:26:52;16.52;;;10.05;;
27899;SDS011;15243;50.726;7.080;2023-04-09T07:29:19;16.83;;;9.85;;
27899;SDS011;15243;50.726;7.080;2023-04-09T07:31:47;15.48;;;10.02;;
27899;SDS011;15243;50.726;7.080;2023-04-09T07:34:14;13.90;;;8.98;;
27899;SDS011;15243;50.726;7.080;2023-04-09T07:36:42;15.38;;;9.98;;
27899;SDS011;15243;50.726;7.080;2023-04-09T07:39:09;13.15;;;9.18;;
27899;SDS011;15243;50.726;7.080;2023-04-09T07:41:36;15.13;;;8.88;;
27899;SDS011;15243;50.726;7.080;2023-04-09T07:44:03;12.18;;;8.07;;
27899;SDS011;15243;50.726;7.080;2023-04-09T07:46:31;14.05;;;9.18;;
27899;SDS011;15243;50.726;7.080;2023-04-09T07:48:58;14.18;;;8.90;;
27899;SDS011;15243;50.726;7.080;2023-04-09T07:51:26;13.27;;;8.18;;
27899;SDS011;15243;50.726;7.080;2023-04-09T07:53:53;14.15;;;8.65;;
27899;SDS011;15243;50.726;7.080;2023-04-09T07:56:20;12.15;;;8.35;;
27899;SDS011;15243;50.726;7.080;2023-04-09T07:58:47;11.60;;;8.13;;
27899;SDS011;15243;50.726;7.080;2023-04-09T08:01:16;13.43;;;8.98;;
27899;SDS011;15243;50.726;7.080;2023-04-09T08:03:43;13.73;;;9.18;;
27899;SDS011;15243;50.726;7.080;2023-04-09T08:06:10;14.40;;;8.95;;
27899;SDS011;15243;50.726;7.080;2023-04-09T08:08:37;14.98;;;9.40;;
27899;SDS011;15243;50.726;7.080;2023-04-09T08:11:05;13.57;;;9.02;;
27899;SDS011;15243;50.726;7.080;2023-04-09T08:13:32;13.25;;;8.93;;
27899;SDS011;15243;50.726;7.080;2023-04-09T08:16:00;13.85;;;8.75;;
27899;SDS011;15243;50.726;7.080;2023-04-09T08:18:30;12.18;;;7.95;;
27899;SDS011;15243;50.726;7.080;2023-04-09T08:20:57;14.75;;;9.18;;
27899;SDS011;15243;50.726;7.080;2023-04-09T08:23:24;12.30;;;8.05;;
27899;SDS011;15243;50.726;7.080;2023-04-09T08:25:51;11.90;;;7.20;;
27899;SDS011;15243;50.726;7.080;2023-04-09T08:28:18;10.68;;;7.35;;
27899;SDS011;15243;50.726;7.080;2023-04-09T08:30:45;12.05;;;7.78;;
27899;SDS011;15243;50.726;7.080;2023-04-09T08:33:13;10.10;;;6.25;;
27899;SDS011;15243;50.726;7.080;2023-04-09T08:35:40;7.40;;;5.78;;
27899;SDS011;15243;50.726;7.080;2023-04-09T08:38:07;10.23;;;6.45;;
27899;SDS011;15243;50.726;7.080;2023-04-09T08:40:35;10.88;;;6.75;;
27899;SDS011;15243;50.726;7.080;2023-04-09T08:43:04;8.85;;;6.63;;
27899;SDS011;15243;50.726;7.080;2023-04-09T08:45:33;8.77;;;6.60;;
27899;SDS011;15243;50.726;7.080;2023-04-09T08:48:01;13.25;;;7.32;;
27899;SDS011;15243;50.726;7.080;2023-04-09T08:50:30;10.38;;;6.85;;
27899;SDS011;15243;50.726;7.080;2023-04-09T08:53:01;9.75;;;6.75;;
27899;SDS011;15243;50.726;7.080;2023-04-09T08:55:31;9.50;;;6.55;;
27899;SDS011;15243;50.726;7.080;2023-04-09T08:58:03;12.77;;;7.38;;
27899;SDS011;15243;50.726;7.080;2023-04-09T09:00:32;12.23;;;7.78;;
27899;SDS011;15243;50.726;7.080;2023-04-09T09:03:00;10.00;;;7.35;;
27899;SDS011;15243;50.726;7.080;2023-04-09T09:05:43;12.10;;;7.15;;
27899;SDS011;15243;50.726;7.080;2023-04-09T09:08:12;10.85;;;7.70;;
27899;SDS011;15243;50.726;7.080;2023-04-09T09:10:48;13.57;;;8.00;;
27899;SDS011;15243;50.726;7.080;2023-04-09T09:15:43;11.10;;;7.60;;
27899;SDS011;15243;50.726;7.080;2023-04-09T09:18:13;10.02;;;6.93;;
27899;SDS011;15243;50.726;7.080;2023-04-09T09:20:39;9.88;;;7.22;;
27899;SDS011;15243;50.726;7.080;2023-04-09T09:23:07;10.05;;;7.60;;
27899;SDS011;15243;50.726;7.080;2023-04-09T09:25:37;11.63;;;7.00;;
27899;SDS011;15243;50.726;7.080;2023-04-09T09:28:07;9.60;;;6.90;;
27899;SDS011;15243;50.726;7.080;2023-04-09T09:30:38;12.23;;;8.05;;
27899;SDS011;15243;50.726;7.080;2023-04-09T09:33:06;11.07;;;7.78;;
27899;SDS011;15243;50.726;7.080;2023-04-09T09:35:51;10.80;;;7.57;;
27899;SDS011;15243;50.726;7.080;2023-04-09T09:38:20;11.30;;;7.80;;
27899;SDS011;15243;50.726;7.080;2023-04-09T09:40:47;10.57;;;7.25;;
27899;SDS011;15243;50.726;7.080;2023-04-09T09:43:15;9.80;;;7.18;;
27899;SDS011;15243;50.726;7.080;2023-04-09T09:45:42;9.98;;;6.95;;
27899;SDS011;15243;50.726;7.080;2023-04-09T09:48:12;10.88;;;7.63;;
27899;SDS011;15243;50.726;7.080;2023-04-09T09:50:40;10.88;;;7.85;;
27899;SDS011;15243;50.726;7.080;2023-04-09T09:53:08;11.57;;;7.55;;
27899;SDS011;15243;50.726;7.080;2023-04-09T09:55:38;10.68;;;7.68;;
27899;SDS011;15243;50.726;7.080;2023-04-09T09:58:16;10.65;;;7.55;;
27899;SDS011;15243;50.726;7.080;2023-04-09T10:00:48;10.55;;;7.47;;
27899;SDS011;15243;50.726;7.080;2023-04-09T10:03:21;9.82;;;7.03;;
27899;SDS011;15243;50.726;7.080;2023-04-09T10:05:51;8.27;;;6.43;;
27899;SDS011;15243;50.726;7.080;2023-04-09T10:08:22;10.82;;;7.72;;
27899;SDS011;15243;50.726;7.080;2023-04-09T10:10:51;12.98;;;7.93;;
27899;SDS011;15243;50.726;7.080;2023-04-09T10:13:20;12.02;;;8.55;;
27899;SDS011;15243;50.726;7.080;2023-04-09T10:16:06;11.30;;;7.93;;
27899;SDS011;15243;50.726;7.080;2023-04-09T10:18:34;10.20;;;7.43;;
27899;SDS011;15243;50.726;7.080;2023-04-09T10:21:04;10.32;;;7.55;;
27899;SDS011;15243;50.726;7.080;2023-04-09T10:23:48;11.32;;;8.02;;
27899;SDS011;15243;50.726;7.080;2023-04-09T10:26:19;11.63;;;8.27;;
27899;SDS011;15243;50.726;7.080;2023-04-09T10:29:01;11.55;;;7.20;;
27899;SDS011;15243;50.726;7.080;2023-04-09T10:34:43;11.82;;;8.30;;
27899;SDS011;15243;50.726;7.080;2023-04-09T10:37:15;13.30;;;8.52;;
27899;SDS011;15243;50.726;7.080;2023-04-09T10:39:47;11.57;;;8.25;;
27899;SDS011;15243;50.726;7.080;2023-04-09T10:42:28;11.10;;;7.97;;
27899;SDS011;15243;50.726;7.080;2023-04-09T10:47:40;10.73;;;7.93;;
27899;SDS011;15243;50.726;7.080;2023-04-09T10:50:15;12.30;;;8.07;;
27899;SDS011;15243;50.726;7.080;2023-04-09T10:52:54;13.50;;;8.82;;
27899;SDS011;15243;50.726;7.080;2023-04-09T11:00:38;12.52;;;7.60;;
27899;SDS011;15243;50.726;7.080;2023-04-09T11:05:39;9.32;;;6.55;;
27899;SDS011;15243;50.726;7.080;2023-04-09T11:08:09;8.57;;;6.50;;
27899;SDS011;15243;50.726;7.080;2023-04-09T11:10:37;10.15;;;7.50;;
27899;SDS011;15243;50.726;7.080;2023-04-09T11:13:10;10.43;;;7.07;;
27899;SDS011;15243;50.726;7.080;2023-04-09T11:15:38;11.60;;;7.47;;
27899;SDS011;15243;50.726;7.080;2023-04-09T11:18:06;9.13;;;6.68;;
27899;SDS011;15243;50.726;7.080;2023-04-09T11:20:35;11.48;;;7.90;;
27899;SDS011;15243;50.726;7.080;2023-04-09T11:23:02;11.20;;;7.43;;
27899;SDS011;15243;50.726;7.080;2023-04-09T11:25:31;9.52;;;6.95;;
27899;SDS011;15243;50.726;7.080;2023-04-09T11:28:01;8.02;;;6.20;;
27899;SDS011;15243;50.726;7.080;2023-04-09T11:30:29;9.32;;;6.57;;
27899;SDS011;15243;50.726;7.080;2023-04-09T11:32:57;10.30;;;7.90;;
27899;SDS011;15243;50.726;7.080;2023-04-09T11:35:24;11.43;;;8.02;;
27899;SDS011;15243;50.726;7.080;2023-04-09T11:37:51;11.10;;;8.55;;
27899;SDS011;15243;50.726;7.080;2023-04-09T11:40:20;11.20;;;8.23;;
27899;SDS011;15243;50.726;7.080;2023-04-09T11:42:50;10.57;;;8.20;;
27899;SDS011;15243;50.726;7.080;2023-04-09T11:45:19;10.60;;;7.60;;
27899;SDS011;15243;50.726;7.080;2023-04-09T11:50:19;10.20;;;6.95;;
27899;SDS011;15243;50.726;7.080;2023-04-09T11:52:47;11.77;;;7.65;;
27899;SDS011;15243;50.726;7.080;2023-04-09T11:55:25;11.80;;;8.18;;
27899;SDS011;15243;50.726;7.080;2023-04-09T11:57:59;11.57;;;8.00;;
27899;SDS011;15243;50.726;7.080;2023-04-09T12:00:27;13.48;;;8.35;;
27899;SDS011;15243;50.726;7.080;2023-04-09T12:03:02;11.05;;;7.72;;
27899;SDS011;15243;50.726;7.080;2023-04-09T12:05:35;9.13;;;6.55;;
27899;SDS011;15243;50.726;7.080;2023-04-09T12:08:07;10.30;;;7.10;;
27899;SDS011;15243;50.726;7.080;2023-04-09T12:10:35;9.85;;;7.20;;
27899;SDS011;15243;50.726;7.080;2023-04-09T12:13:05;9.40;;;7.50;;
27899;SDS011;15243;50.726;7.080;2023-04-09T12:15:35;10.73;;;7.68;;
27899;SDS011;15243;50.726;7.080;2023-04-09T12:18:06;9.90;;;7.00;;
27899;SDS011;15243;50.726;7.080;2023-04-09T12:20:36;9.88;;;7.47;;
27899;SDS011;15243;50.726;7.080;2023-04-09T12:23:08;12.30;;;8.95;;
27899;SDS011;15243;50.726;7.080;2023-04-09T12:25:37;10.80;;;7.57;;
27899;SDS011;15243;50.726;7.080;2023-04-09T12:28:06;11.00;;;8.40;;
27899;SDS011;15243;50.726;7.080;2023-04-09T12:30:35;9.57;;;7.43;;
27899;SDS011;15243;50.726;7.080;2023-04-09T12:33:03;9.27;;;6.53;;
27899;SDS011;15243;50.726;7.080;2023-04-09T12:35:31;9.63;;;7.20;;
27899;SDS011;15243;50.726;7.080;2023-04-09T12:38:00;8.43;;;6.75;;
27899;SDS011;15243;50.726;7.080;2023-04-09T12:40:27;9.82;;;7.55;;
27899;SDS011;15243;50.726;7.080;2023-04-09T12:42:54;10.07;;;7.32;;
27899;SDS011;15243;50.726;7.080;2023-04-09T12:45:22;9.57;;;7.40;;
27899;SDS011;15243;50.726;7.080;2023-04-09T12:47:48;10.00;;;6.85;;
27899;SDS011;15243;50.726;7.080;2023-04-09T12:50:16;8.85;;;6.90;;
27899;SDS011;15243;50.726;7.080;2023-04-09T12:52:44;8.27;;;6.45;;
27899;SDS011;15243;50.726;7.080;2023-04-09T12:55:11;9.65;;;6.90;;
27899;SDS011;15243;50.726;7.080;2023-04-09T12:57:41;8.50;;;6.38;;
27899;SDS011;15243;50.726;7.080;2023-04-09T13:00:10;7.95;;;6.15;;
27899;SDS011;15243;50.726;7.080;2023-04-09T13:02:37;7.95;;;6.10;;
27899;SDS011;15243;50.726;7.080;2023-04-09T13:05:05;8.45;;;6.40;;
27899;SDS011;15243;50.726;7.080;2023-04-09T13:07:32;9.88;;;6.85;;
27899;SDS011;15243;50.726;7.080;2023-04-09T13:09:59;7.18;;;5.25;;
27899;SDS011;15243;50.726;7.080;2023-04-09T13:12:27;9.40;;;6.88;;
27899;SDS011;15243;50.726;7.080;2023-04-09T13:14:54;9.25;;;6.93;;
27899;SDS011;15243;50.726;7.080;2023-04-09T13:17:21;7.93;;;5.97;;
27899;SDS011;15243;50.726;7.080;2023-04-09T13:19:49;7.20;;;5.63;;
27899;SDS011;15243;50.726;7.080;2023-04-09T13:22:17;8.35;;;6.03;;
27899;SDS011;15243;50.726;7.080;2023-04-09T13:24:44;7.05;;;6.00;;
27899;SDS011;15243;50.726;7.080;2023-04-09T13:27:11;7.22;;;6.05;;
27899;SDS011;15243;50.726;7.080;2023-04-09T13:29:38;6.72;;;5.93;;
27899;SDS011;15243;50.726;7.080;2023-04-09T13:32:05;6.82;;;5.32;;
27899;SDS011;15243;50.726;7.080;2023-04-09T13:34:33;7.50;;;5.18;;
27899;SDS011;15243;50.726;7.080;2023-04-09T13:37:01;7.60;;;5.63;;
27899;SDS011;15243;50.726;7.080;2023-04-09T13:39:28;6.53;;;5.72;;
27899;SDS011;15243;50.726;7.080;2023-04-09T13:41:56;10.23;;;5.18;;
27899;SDS011;15243;50.726;7.080;2023-04-09T13:44:23;6.45;;;5.22;;
27899;SDS011;15243;50.726;7.080;2023-04-09T13:46:50;9.23;;;5.75;;
27899;SDS011;15243;50.726;7.080;2023-04-09T13:49:18;7.55;;;5.70;;
27899;SDS011;15243;50.726;7.080;2023-04-09T13:51:45;7.05;;;5.20;;
27899;SDS011;15243;50.726;7.080;2023-04-09T13:54:12;5.95;;;5.13;;
27899;SDS011;15243;50.726;7.080;2023-04-09T13:56:40;5.90;;;5.30;;
27899;SDS011;15243;50.726;7.080;2023-04-09T13:59:07;5.93;;;4.88;;
27899;SDS011;15243;50.726;7.080;2023-04-09T14:01:34;6.22;;;4.80;;
27899;SDS011;15243;50.726;7.080;2023-04-09T14:04:01;7.32;;;5.15;;
27899;SDS011;15243;50.726;7.080;2023-04-09T14:06:29;8.70;;;5.47;;
27899;SDS011;15243;50.726;7.080;2023-04-09T14:08:56;5.82;;;4.45;;
27899;SDS011;15243;50.726;7.080;2023-04-09T14:11:23;7.03;;;4.45;;
27899;SDS011;15243;50.726;7.080;2023-04-09T14:13:50;5.75;;;4.70;;
27899;SDS011;15243;50.726;7.080;2023-04-09T14:16:18;6.00;;;4.78;;
27899;SDS011;15243;50.726;7.080;2023-04-09T14:18:45;6.13;;;4.75;;
27899;SDS011;15243;50.726;7.080;2023-04-09T14:21:12;6.53;;;5.22;;
27899;SDS011;15243;50.726;7.080;2023-04-09T14:23:39;5.88;;;4.65;;
27899;SDS011;15243;50.726;7.080;2023-04-09T14:26:07;6.68;;;4.95;;
27899;SDS011;15243;50.726;7.080;2023-04-09T14:28:34;7.13;;;5.15;;
27899;SDS011;15243;50.726;7.080;2023-04-09T14:31:01;6.03;;;4.82;;
27899;SDS011;15243;50.726;7.080;2023-04-09T14:33:30;6.43;;;5.20;;
27899;SDS011;15243;50.726;7.080;2023-04-09T14:35:57;5.80;;;5.20;;
27899;SDS011;15243;50.726;7.080;2023-04-09T14:38:24;6.70;;;5.50;;
27899;SDS011;15243;50.726;7.080;2023-04-09T14:40:51;6.80;;;5.15;;
27899;SDS011;15243;50.726;7.080;2023-04-09T14:43:19;6.53;;;5.22;;
27899;SDS011;15243;50.726;7.080;2023-04-09T14:45:45;6.68;;;5.30;;
27899;SDS011;15243;50.726;7.080;2023-04-09T14:48:12;6.15;;;4.97;;
27899;SDS011;15243;50.726;7.080;2023-04-09T14:50:40;6.68;;;4.80;;
27899;SDS011;15243;50.726;7.080;2023-04-09T14:53:08;4.97;;;4.35;;
27899;SDS011;15243;50.726;7.080;2023-04-09T14:55:35;5.28;;;4.22;;
27899;SDS011;15243;50.726;7.080;2023-04-09T14:58:03;4.30;;;3.65;;
27899;SDS011;15243;50.726;7.080;2023-04-09T15:00:32;7.57;;;4.82;;
27899;SDS011;15243;50.726;7.080;2023-04-09T15:03:00;5.05;;;4.05;;
27899;SDS011;15243;50.726;7.080;2023-04-09T15:05:28;4.95;;;3.80;;